Terminal Aerodrome Forecast
Issued by NWS Shreveport, LA

Home | Current Version | Previous Version | Text Only | Print | Product List | Glossary On
Versions: 1 2 3 4 5 6 7 8 9 10 11 12 13 14 15 16 17 18
000
FTUS44 KSHV 270500
TAFGGG
TAF
KGGG 270525Z 2706/2806 36007KT P6SM SCT035 OVC100
     FM271400 05012KT P6SM SCT030 OVC080
     FM272200 06010KT P6SM -SN SCT025 OVC050
     FM280200 07008KT P6SM BKN060=

USA.gov is the U.S. government's official web portal to all federal, state and local government web resources and services.